createdAt,value
2022-12-09T00:01:36.703Z,39.33
2022-12-09T00:04:05.601Z,40.83
2022-12-09T00:06:34.535Z,37.25
2022-12-09T00:09:03.175Z,39.45
2022-12-09T00:11:31.582Z,36.50
2022-12-09T00:14:01.177Z,39.88
2022-12-09T00:16:31.274Z,43.25
2022-12-09T00:18:59.667Z,39.30
2022-12-09T00:21:30.641Z,37.22
2022-12-09T00:24:02.573Z,42.40
2022-12-09T00:26:33.027Z,35.15
2022-12-09T00:29:02.784Z,39.00
2022-12-09T00:31:36.439Z,34.55
2022-12-09T00:34:09.561Z,35.13
2022-12-09T00:36:39.958Z,40.33
2022-12-09T00:39:08.304Z,41.20
2022-12-09T00:41:37.516Z,33.95
2022-12-09T00:44:06.559Z,39.95
2022-12-09T00:46:37.375Z,33.13
2022-12-09T00:49:07.964Z,35.47
2022-12-09T00:51:36.862Z,32.88
2022-12-09T00:54:06.011Z,32.70
2022-12-09T00:56:34.706Z,34.40
2022-12-09T00:59:03.134Z,35.75
2022-12-09T01:01:31.774Z,36.78
2022-12-09T01:04:02.584Z,36.85
2022-12-09T01:06:31.526Z,40.80
2022-12-09T01:09:02.100Z,35.30
2022-12-09T01:11:31.125Z,42.17
2022-12-09T01:14:02.239Z,40.17
2022-12-09T01:16:34.444Z,40.50
2022-12-09T01:19:08.916Z,37.05
2022-12-09T01:21:38.914Z,40.95
2022-12-09T01:24:11.080Z,38.10
2022-12-09T01:26:40.849Z,37.75
2022-12-09T01:29:09.834Z,39.63
2022-12-09T01:31:39.062Z,38.85
2022-12-09T01:34:08.960Z,38.15
2022-12-09T01:36:37.639Z,33.25
2022-12-09T01:39:06.452Z,38.42
2022-12-09T01:41:36.706Z,36.78
2022-12-09T01:44:19.487Z,44.00
2022-12-09T01:49:23.891Z,37.90
2022-12-09T01:52:02.276Z,37.50
2022-12-09T01:54:35.273Z,41.88
2022-12-09T01:57:06.610Z,37.20
2022-12-09T01:59:36.310Z,35.47
2022-12-09T02:02:08.518Z,46.17
2022-12-09T02:04:46.270Z,33.58
2022-12-09T02:07:20.475Z,44.70
2022-12-09T02:09:53.200Z,37.42
2022-12-09T02:12:39.969Z,39.83
2022-12-09T02:15:17.903Z,42.88
2022-12-09T02:17:55.210Z,43.88
2022-12-09T02:20:36.292Z,36.33
2022-12-09T02:23:12.810Z,39.08
2022-12-09T02:25:50.350Z,41.35
2022-12-09T02:29:00.179Z,38.08
2022-12-09T02:32:06.096Z,40.08
2022-12-09T02:34:46.960Z,37.72
2022-12-09T02:37:22.150Z,40.22
2022-12-09T02:40:00.858Z,41.22
2022-12-09T02:42:34.679Z,40.63
2022-12-09T02:45:09.498Z,37.92
2022-12-09T02:47:50.498Z,41.85
2022-12-09T02:50:25.603Z,41.25
2022-12-09T02:52:57.449Z,41.50
2022-12-09T02:55:29.081Z,37.50
2022-12-09T02:58:01.626Z,36.78
2022-12-09T03:00:33.235Z,40.42
2022-12-09T03:03:06.519Z,43.25
2022-12-09T03:05:49.560Z,40.88
2022-12-09T03:08:30.767Z,39.88
2022-12-09T03:11:03.794Z,46.22
2022-12-09T03:13:45.836Z,41.50
2022-12-09T03:16:21.876Z,39.75
2022-12-09T03:18:56.975Z,40.85
2022-12-09T03:21:30.668Z,40.08
2022-12-09T03:24:01.912Z,39.20
2022-12-09T03:26:34.589Z,38.92
2022-12-09T03:31:36.189Z,40.03
2022-12-09T03:34:08.640Z,44.60
2022-12-09T03:36:42.419Z,42.83
2022-12-09T03:39:16.239Z,47.40
2022-12-09T03:41:48.762Z,40.45
2022-12-09T03:44:25.009Z,36.22
2022-12-09T03:46:53.701Z,34.75
2022-12-09T03:49:22.247Z,41.40
2022-12-09T03:51:58.521Z,36.95
2022-12-09T03:54:34.024Z,38.33
2022-12-09T03:57:03.587Z,38.75
2022-12-09T03:59:36.646Z,46.53
2022-12-09T04:02:07.560Z,38.42
2022-12-09T04:04:39.595Z,39.90
2022-12-09T04:07:11.048Z,36.20
2022-12-09T04:09:43.089Z,40.88
2022-12-09T04:12:12.302Z,38.13
2022-12-09T04:14:41.224Z,38.45
2022-12-09T04:17:09.997Z,39.28
2022-12-09T04:19:38.863Z,38.83
2022-12-09T04:22:08.993Z,42.72
2022-12-09T04:24:37.722Z,42.58
2022-12-09T04:27:06.447Z,41.53
2022-12-09T04:29:35.888Z,46.67
2022-12-09T04:32:05.214Z,39.30
2022-12-09T04:34:34.739Z,41.75
2022-12-09T04:37:03.172Z,54.97
2022-12-09T04:39:34.338Z,45.28
2022-12-09T04:42:03.263Z,42.63
2022-12-09T04:44:31.714Z,37.95
2022-12-09T04:47:00.325Z,39.45
2022-12-09T04:49:28.968Z,43.22
2022-12-09T04:51:58.192Z,35.90
2022-12-09T04:54:26.925Z,43.53
2022-12-09T04:56:57.040Z,40.35
2022-12-09T04:59:25.621Z,36.28
2022-12-09T05:01:54.143Z,40.92
2022-12-09T05:04:23.347Z,26.55
2022-12-09T05:06:52.118Z,26.10
2022-12-09T05:09:21.009Z,27.63
2022-12-09T05:11:49.658Z,31.17
2022-12-09T05:14:20.349Z,32.92
2022-12-09T05:16:48.891Z,24.35
2022-12-09T05:19:18.083Z,25.30
2022-12-09T05:21:47.005Z,27.35
2022-12-09T05:24:15.550Z,28.45
2022-12-09T05:26:44.083Z,28.70
2022-12-09T05:29:17.875Z,24.38
2022-12-09T05:31:51.958Z,25.88
2022-12-09T05:34:21.245Z,26.90
2022-12-09T05:36:49.832Z,25.15
2022-12-09T05:39:18.241Z,28.58
2022-12-09T05:41:47.983Z,32.70
2022-12-09T05:44:17.106Z,28.13
2022-12-09T05:46:45.539Z,31.50
2022-12-09T05:49:15.748Z,46.78
2022-12-09T05:51:44.969Z,32.05
2022-12-09T05:54:13.643Z,28.80
2022-12-09T05:56:47.881Z,26.40
2022-12-09T05:59:17.075Z,24.02
2022-12-09T06:01:45.884Z,19.98
2022-12-09T06:04:16.266Z,26.90
2022-12-09T06:06:45.236Z,24.38
2022-12-09T06:09:14.669Z,27.30
2022-12-09T06:11:43.153Z,21.65
2022-12-09T06:14:12.729Z,23.17
2022-12-09T06:16:41.545Z,23.25
2022-12-09T06:19:12.873Z,21.90
2022-12-09T06:21:43.733Z,24.67
2022-12-09T06:24:12.473Z,20.35
2022-12-09T06:26:42.376Z,23.35
2022-12-09T06:29:11.666Z,26.40
2022-12-09T06:31:40.658Z,23.60
2022-12-09T06:34:09.077Z,23.83
2022-12-09T06:36:37.549Z,23.20
2022-12-09T06:39:11.142Z,23.55
2022-12-09T06:41:42.162Z,21.98
2022-12-09T06:44:18.420Z,25.17
2022-12-09T06:46:51.234Z,18.75
2022-12-09T06:49:20.000Z,26.30
2022-12-09T06:51:48.650Z,23.77
2022-12-09T06:54:18.717Z,22.50
2022-12-09T06:56:47.218Z,20.30
2022-12-09T06:59:16.183Z,22.65
2022-12-09T07:01:45.798Z,25.23
2022-12-09T07:04:15.845Z,21.90
2022-12-09T07:06:47.269Z,24.60
2022-12-09T07:09:20.967Z,20.80
2022-12-09T07:11:50.978Z,23.88
2022-12-09T07:14:21.478Z,21.33
2022-12-09T07:16:50.502Z,19.55
2022-12-09T07:19:22.395Z,20.17
2022-12-09T07:21:52.460Z,26.25
2022-12-09T07:24:22.700Z,30.13
2022-12-09T07:26:53.289Z,23.58
2022-12-09T07:29:22.859Z,32.38
2022-12-09T07:31:51.461Z,23.88
2022-12-09T07:34:20.260Z,29.33
2022-12-09T07:36:49.450Z,24.83
2022-12-09T07:39:20.544Z,22.60
2022-12-09T07:41:53.368Z,24.27
2022-12-09T07:44:23.594Z,24.20
2022-12-09T07:46:52.849Z,30.50
2022-12-09T07:49:21.682Z,26.02
2022-12-09T07:51:51.520Z,25.25
2022-12-09T07:54:21.355Z,24.60
2022-12-09T07:56:52.430Z,30.90
2022-12-09T07:59:21.129Z,27.05
2022-12-09T08:01:49.885Z,33.03
2022-12-09T08:04:19.890Z,26.15
2022-12-09T08:06:48.600Z,23.33
2022-12-09T08:09:18.495Z,22.88
2022-12-09T08:11:47.074Z,27.95
2022-12-09T08:14:19.330Z,32.17
2022-12-09T08:16:48.506Z,34.33
2022-12-09T08:19:17.271Z,32.38
2022-12-09T08:21:49.771Z,29.70
2022-12-09T08:24:23.536Z,21.27
2022-12-09T08:26:52.740Z,30.83
2022-12-09T08:29:23.035Z,29.42
2022-12-09T08:31:52.269Z,30.48
2022-12-09T08:34:21.393Z,26.70
2022-12-09T08:36:50.219Z,23.38
2022-12-09T08:39:19.004Z,28.35
2022-12-09T08:41:47.379Z,30.35
2022-12-09T08:44:18.686Z,27.17
2022-12-09T08:46:51.901Z,29.60
2022-12-09T08:49:24.381Z,26.98
2022-12-09T08:51:54.904Z,31.65
2022-12-09T08:54:24.032Z,31.23
2022-12-09T08:56:56.045Z,31.90
2022-12-09T08:59:25.387Z,28.53
2022-12-09T09:01:55.732Z,31.55
2022-12-09T09:04:24.454Z,31.58
2022-12-09T09:06:54.743Z,32.35
2022-12-09T09:09:24.468Z,26.50
2022-12-09T09:11:53.358Z,26.90
2022-12-09T09:14:22.158Z,30.52
2022-12-09T09:16:51.721Z,29.10
2022-12-09T09:19:26.823Z,28.92
2022-12-09T09:21:56.923Z,29.13
2022-12-09T09:24:27.584Z,32.65
2022-12-09T09:26:56.870Z,30.52
2022-12-09T09:29:27.102Z,29.65
2022-12-09T09:31:56.345Z,28.48
2022-12-09T09:34:28.051Z,29.08
2022-12-09T09:36:57.858Z,30.80
2022-12-09T09:39:26.753Z,34.50
2022-12-09T09:42:00.472Z,36.92
2022-12-09T09:44:36.782Z,38.47
2022-12-09T09:47:16.826Z,42.20
2022-12-09T09:49:55.470Z,42.60
2022-12-09T09:52:28.279Z,46.42
2022-12-09T09:54:57.121Z,49.42
2022-12-09T09:57:33.327Z,47.97
2022-12-09T10:00:15.180Z,43.47
2022-12-09T10:03:01.349Z,42.22
2022-12-09T10:05:35.722Z,48.65
2022-12-09T10:08:40.622Z,45.72
2022-12-09T10:11:19.854Z,47.92
2022-12-09T10:13:56.293Z,44.80
2022-12-09T10:16:35.126Z,41.42
2022-12-09T10:19:10.530Z,40.33
2022-12-09T10:21:46.802Z,42.40
2022-12-09T10:24:25.017Z,38.92
2022-12-09T10:27:06.250Z,40.20
2022-12-09T10:29:59.338Z,38.45
2022-12-09T10:32:32.709Z,41.75
2022-12-09T10:35:03.498Z,34.83
2022-12-09T10:37:36.327Z,36.78
2022-12-09T10:40:21.265Z,36.70
2022-12-09T10:43:10.992Z,38.65
2022-12-09T10:48:42.428Z,44.97
2022-12-09T10:51:16.815Z,44.47
2022-12-09T10:53:53.226Z,38.45
2022-12-09T10:56:26.674Z,39.35
2022-12-09T10:59:13.529Z,41.15
2022-12-09T11:01:55.697Z,37.67
2022-12-09T11:04:28.351Z,35.80
2022-12-09T11:09:34.654Z,44.40
2022-12-09T11:12:08.612Z,43.88
2022-12-09T11:14:41.451Z,42.85
2022-12-09T11:19:49.150Z,38.35
2022-12-09T11:22:39.364Z,43.08
2022-12-09T11:25:25.316Z,41.72
2022-12-09T11:27:58.515Z,36.95
2022-12-09T11:30:30.704Z,37.00
2022-12-09T11:33:08.834Z,39.75
2022-12-09T11:35:55.080Z,37.97
2022-12-09T11:38:41.493Z,42.88
2022-12-09T11:41:39.056Z,44.47
2022-12-09T11:44:23.663Z,39.88
2022-12-09T11:47:00.737Z,39.03
2022-12-09T11:49:33.227Z,34.83
2022-12-09T11:52:07.147Z,36.60
2022-12-09T11:54:44.064Z,36.80
2022-12-09T11:57:28.205Z,36.88
2022-12-09T12:00:02.948Z,39.55
2022-12-09T12:02:42.087Z,39.60
2022-12-09T12:05:22.739Z,50.75
2022-12-09T12:08:03.885Z,41.22
2022-12-09T12:10:41.221Z,42.78
2022-12-09T12:13:22.940Z,42.70
2022-12-09T12:16:02.188Z,39.85
2022-12-09T12:18:39.853Z,49.05
2022-12-09T12:21:23.623Z,41.38
2022-12-09T12:24:15.473Z,43.42
2022-12-09T12:26:56.771Z,46.47
2022-12-09T12:29:40.504Z,43.45
2022-12-09T12:32:29.114Z,38.70
2022-12-09T12:35:17.458Z,43.15
2022-12-09T12:38:03.265Z,48.95
2022-12-09T12:40:44.048Z,40.25
2022-12-09T12:44:04.646Z,35.88
2022-12-09T12:46:57.781Z,42.35
2022-12-09T12:50:09.771Z,42.72
2022-12-09T12:52:57.039Z,39.70
2022-12-09T12:55:49.293Z,44.35
2022-12-09T12:58:35.002Z,51.90
2022-12-09T13:01:12.735Z,48.28
2022-12-09T13:03:54.617Z,44.08
2022-12-09T13:06:35.479Z,45.00
2022-12-09T13:09:12.443Z,44.08
2022-12-09T13:12:07.413Z,47.63
2022-12-09T13:14:55.031Z,51.22
2022-12-09T13:17:29.460Z,48.03
2022-12-09T13:20:03.179Z,51.75
2022-12-09T13:22:45.103Z,54.47
2022-12-09T13:25:27.186Z,50.60
2022-12-09T13:28:04.826Z,58.15
2022-12-09T13:30:41.143Z,52.80
2022-12-09T13:33:43.844Z,52.40
2022-12-09T13:36:22.778Z,52.33
2022-12-09T13:38:51.949Z,55.55
2022-12-09T13:42:02.035Z,48.08
2022-12-09T13:44:38.233Z,52.88
2022-12-09T13:47:26.468Z,43.35
2022-12-09T13:50:00.566Z,45.15
2022-12-09T13:52:52.067Z,47.13
2022-12-09T13:55:29.788Z,48.75
2022-12-09T13:58:20.364Z,47.08
2022-12-09T14:01:06.502Z,46.00
2022-12-09T14:03:38.450Z,48.45
2022-12-09T14:06:26.003Z,46.10
2022-12-09T14:09:02.354Z,40.10
2022-12-09T14:11:49.674Z,43.97
2022-12-09T14:14:51.079Z,45.70
2022-12-09T14:18:03.029Z,36.03
2022-12-09T14:20:40.491Z,31.45
2022-12-09T14:23:20.470Z,32.58
2022-12-09T14:26:06.079Z,31.70
2022-12-09T14:28:56.694Z,36.13
2022-12-09T14:31:52.757Z,30.20
2022-12-09T14:34:44.288Z,42.22
2022-12-09T14:37:37.285Z,35.50
2022-12-09T14:40:41.680Z,41.25
2022-12-09T14:43:47.153Z,32.83
2022-12-09T14:46:27.288Z,30.48
2022-12-09T14:49:03.068Z,33.03
2022-12-09T14:51:37.496Z,26.52
2022-12-09T14:54:14.045Z,29.27
2022-12-09T14:56:49.838Z,31.92
2022-12-09T14:59:22.991Z,32.42
2022-12-09T15:01:56.220Z,25.73
2022-12-09T15:04:32.293Z,28.60
2022-12-09T15:07:13.645Z,38.13
2022-12-09T15:09:54.286Z,28.27
2022-12-09T15:12:30.765Z,29.23
2022-12-09T15:15:07.800Z,31.65
2022-12-09T15:17:42.242Z,24.90
2022-12-09T15:20:25.519Z,33.30
2022-12-09T15:22:56.377Z,40.97
2022-12-09T15:25:26.455Z,28.13
2022-12-09T15:28:03.323Z,31.60
2022-12-09T15:30:37.048Z,29.98
2022-12-09T15:33:13.800Z,30.92
2022-12-09T15:35:50.064Z,30.67
2022-12-09T15:38:19.009Z,33.08
2022-12-09T15:41:03.077Z,33.10
2022-12-09T15:43:32.693Z,35.35
2022-12-09T15:46:04.198Z,34.25
2022-12-09T15:48:37.823Z,32.58
2022-12-09T15:51:13.818Z,29.63
2022-12-09T15:53:51.846Z,37.88
2022-12-09T15:56:26.951Z,46.53
2022-12-09T15:59:01.461Z,45.15
2022-12-09T16:01:35.477Z,45.65
2022-12-09T16:04:07.784Z,45.40
2022-12-09T16:06:38.748Z,42.97
2022-12-09T16:09:14.679Z,39.03
2022-12-09T16:11:47.895Z,39.28
2022-12-09T16:14:18.415Z,41.53
2022-12-09T16:16:50.767Z,43.67
2022-12-09T16:19:35.894Z,53.78
2022-12-09T16:22:08.030Z,39.35
2022-12-09T16:25:13.203Z,44.22
2022-12-09T16:27:39.224Z,43.03
2022-12-09T16:30:17.792Z,44.58
2022-12-09T16:32:49.229Z,39.95
2022-12-09T16:35:24.411Z,36.78
2022-12-09T16:38:18.159Z,41.13
2022-12-09T16:41:14.008Z,55.42
2022-12-09T16:43:58.960Z,38.50
2022-12-09T16:46:48.942Z,38.70
2022-12-09T16:49:19.166Z,39.10
2022-12-09T16:51:48.724Z,47.22
2022-12-09T16:54:21.180Z,44.25
2022-12-09T16:56:51.256Z,40.35
2022-12-09T16:59:19.687Z,43.90
2022-12-09T17:01:48.068Z,48.00
2022-12-09T17:04:23.031Z,41.47
2022-12-09T17:06:51.541Z,34.00
2022-12-09T17:09:21.408Z,40.30
2022-12-09T17:11:49.934Z,37.42
2022-12-09T17:14:19.840Z,40.63
2022-12-09T17:16:48.768Z,36.78
2022-12-09T17:19:23.787Z,33.72
2022-12-09T17:21:52.522Z,33.85
2022-12-09T17:24:21.939Z,30.15
2022-12-09T17:26:50.438Z,33.13
2022-12-09T17:29:18.693Z,31.15
2022-12-09T17:31:49.605Z,40.10
2022-12-09T17:34:18.052Z,42.70
2022-12-09T17:36:48.811Z,36.50
2022-12-09T17:39:18.374Z,35.88
2022-12-09T17:41:47.308Z,40.47
2022-12-09T17:44:16.734Z,40.08
2022-12-09T17:46:44.977Z,37.17
2022-12-09T17:49:13.190Z,36.45
2022-12-09T17:51:41.476Z,41.50
2022-12-09T17:54:11.514Z,40.00
2022-12-09T17:56:41.220Z,41.60
2022-12-09T17:59:13.658Z,39.30
2022-12-09T18:01:43.974Z,42.42
2022-12-09T18:04:12.362Z,35.85
2022-12-09T18:06:43.472Z,40.28
2022-12-09T18:09:16.256Z,43.78
2022-12-09T18:11:46.204Z,41.17
2022-12-09T18:14:15.636Z,45.50
2022-12-09T18:16:46.278Z,41.10
2022-12-09T18:19:17.515Z,40.22
2022-12-09T18:21:46.977Z,41.28
2022-12-09T18:24:16.750Z,41.15
2022-12-09T18:26:45.079Z,40.50
2022-12-09T18:29:15.575Z,42.85
2022-12-09T18:31:45.858Z,39.70
2022-12-09T18:34:14.812Z,41.83
2022-12-09T18:36:43.169Z,46.25
2022-12-09T18:39:11.609Z,42.95
2022-12-09T18:41:41.539Z,46.88
2022-12-09T18:44:12.532Z,49.65
2022-12-09T18:46:47.284Z,49.83
2022-12-09T18:49:19.065Z,49.10
2022-12-09T18:51:49.956Z,52.20
2022-12-09T18:54:22.784Z,53.15
2022-12-09T18:56:53.143Z,50.05
2022-12-09T18:59:23.304Z,51.42
2022-12-09T19:01:52.841Z,50.00
2022-12-09T19:04:25.784Z,52.45
2022-12-09T19:06:56.870Z,53.50
2022-12-09T19:09:28.522Z,57.75
2022-12-09T19:12:11.302Z,56.10
2022-12-09T19:14:47.100Z,59.22
2022-12-09T19:17:15.536Z,75.90
2022-12-09T19:19:45.374Z,52.95
2022-12-09T19:22:14.456Z,51.83
2022-12-09T19:24:43.537Z,54.65
2022-12-09T19:27:14.087Z,56.05
2022-12-09T19:29:42.410Z,56.53
2022-12-09T19:32:36.428Z,58.30
2022-12-09T19:34:58.980Z,53.10
2022-12-09T19:37:27.372Z,50.78
2022-12-09T19:39:56.114Z,50.10
2022-12-09T19:42:25.871Z,47.75
2022-12-09T19:45:03.642Z,51.70
2022-12-09T19:47:33.761Z,55.45
2022-12-09T19:50:03.525Z,54.42
2022-12-09T19:52:31.965Z,58.80
2022-12-09T19:55:01.283Z,61.58
2022-12-09T19:57:30.843Z,62.60
2022-12-09T19:59:59.274Z,50.40
2022-12-09T20:02:27.971Z,56.90
2022-12-09T20:04:57.765Z,53.50
2022-12-09T20:07:26.169Z,55.22
2022-12-09T20:09:54.386Z,54.30
2022-12-09T20:12:22.847Z,61.22
2022-12-09T20:14:52.482Z,50.90
2022-12-09T20:17:20.744Z,57.50
2022-12-09T20:19:49.265Z,53.28
2022-12-09T20:22:17.776Z,51.33
2022-12-09T20:24:46.032Z,56.42
2022-12-09T20:27:14.235Z,66.30
2022-12-09T20:29:42.701Z,57.97
2022-12-09T20:32:12.503Z,55.35
2022-12-09T20:34:40.954Z,52.10
2022-12-09T20:37:09.551Z,63.10
2022-12-09T20:39:38.489Z,54.55
2022-12-09T20:42:06.911Z,56.92
2022-12-09T20:44:35.269Z,55.17
2022-12-09T20:47:04.476Z,48.63
2022-12-09T20:49:34.209Z,51.90
2022-12-09T20:52:02.498Z,69.78
2022-12-09T20:54:32.461Z,57.67
2022-12-09T20:57:01.368Z,61.50
2022-12-09T20:59:29.840Z,63.83
2022-12-09T21:01:58.587Z,53.90
2022-12-09T21:04:26.984Z,62.55
2022-12-09T21:06:56.653Z,54.20
2022-12-09T21:09:27.211Z,58.58
2022-12-09T21:11:55.827Z,62.33
2022-12-09T21:14:29.549Z,63.88
2022-12-09T21:17:01.346Z,63.28
2022-12-09T21:19:31.115Z,55.35
2022-12-09T21:22:01.116Z,64.10
2022-12-09T21:24:29.632Z,57.50
2022-12-09T21:26:58.181Z,52.78
2022-12-09T21:29:31.731Z,67.97
2022-12-09T21:32:01.708Z,68.20
2022-12-09T21:34:30.133Z,78.68
2022-12-09T21:37:00.032Z,77.60
2022-12-09T21:39:29.246Z,74.28
2022-12-09T21:41:57.800Z,72.97
2022-12-09T21:44:27.097Z,71.28
2022-12-09T21:46:55.823Z,64.93
2022-12-09T21:49:24.296Z,69.20
2022-12-09T21:51:52.764Z,71.63
2022-12-09T21:54:22.573Z,63.08
2022-12-09T21:56:51.198Z,60.78
2022-12-09T21:59:19.732Z,58.75
2022-12-09T22:01:48.020Z,67.05
2022-12-09T22:04:18.007Z,70.30
2022-12-09T22:06:48.091Z,69.85
2022-12-09T22:09:21.157Z,72.63
2022-12-09T22:11:51.329Z,75.15
2022-12-09T22:14:20.582Z,71.35
2022-12-09T22:16:49.094Z,68.07
2022-12-09T22:19:20.880Z,70.45
2022-12-09T22:21:50.106Z,75.20
2022-12-09T22:24:19.206Z,75.47
2022-12-09T22:26:49.420Z,82.95
2022-12-09T22:29:19.577Z,76.88
2022-12-09T22:31:48.530Z,72.47
2022-12-09T22:34:19.406Z,71.53
2022-12-09T22:36:49.128Z,74.38
2022-12-09T22:39:21.807Z,74.32
2022-12-09T22:41:50.731Z,76.25
2022-12-09T22:44:21.831Z,78.45
2022-12-09T22:46:50.762Z,65.57
2022-12-09T22:49:20.180Z,67.78
2022-12-09T22:51:49.442Z,77.30
2022-12-09T22:54:18.291Z,76.78
2022-12-09T22:56:46.628Z,82.53
2022-12-09T22:59:15.716Z,77.88
2022-12-09T23:01:48.136Z,86.38
2022-12-09T23:04:21.630Z,80.85
2022-12-09T23:06:51.095Z,85.95
2022-12-09T23:09:22.288Z,72.47
2022-12-09T23:11:52.518Z,70.38
2022-12-09T23:14:21.248Z,77.13
2022-12-09T23:16:50.963Z,77.15
2022-12-09T23:19:19.425Z,68.95
2022-12-09T23:21:47.810Z,83.90
2022-12-09T23:24:24.370Z,76.13
2022-12-09T23:26:55.465Z,72.43
2022-12-09T23:29:24.705Z,78.40
2022-12-09T23:31:54.546Z,75.25
2022-12-09T23:34:23.454Z,81.97
2022-12-09T23:36:51.858Z,81.30
2022-12-09T23:39:21.494Z,80.45
2022-12-09T23:41:49.994Z,81.35
2022-12-09T23:44:20.269Z,72.97
2022-12-09T23:46:50.010Z,73.93
2022-12-09T23:49:19.956Z,74.88
2022-12-09T23:51:48.338Z,64.93
2022-12-09T23:54:19.344Z,75.82
2022-12-09T23:56:50.750Z,59.80
2022-12-09T23:59:21.669Z,62.97
